KCLT

Charlotte / Douglas International Airport

Charlotte, North Carolina, USA
METAR KCLT 172052Z 31009KT 8SM -RA SCT009 BKN011 OVC033 10/09 A3011 RMK AO2 RAE1959B20 SLP196 P0000 60001 T01000089 56013
Observed Flight Rules
Feb-17 @ 20:52 UTC (40 minutes ago) Marginal Visual Flight Rules
Wind Visibility Clouds Conditions
310° at 9 knots 8 miles
  • Scattered at 900' AGL
  • Broken at 1,100' AGL
  • Overcast at 3,300' AGL
  • Light Rain
Temperatures Readings Precipitation
Current 10°C / 50°F
Dewpoint 9°C / 48°F
Humidity 94%
Altimeter 30.11" Hg
Pressure 1019.6 hPa
Elevation 220
Current Rain 0.005
METAR KCLT 172052Z 31009KT 8SM -RA SCT009 BKN011 OVC033 10/09 A3011 RMK AO2 RAE1959B20 SLP196 P0000 60001 T01000089 56013
Observed Flight Rules
Feb-17 @ 20:52 UTC
(40 minutes ago)
MVFR
Wind Visibility
310° at 9 knots 8 miles
Clouds
  • Scattered at 900' AGL
  • Broken at 1,100' AGL
  • Overcast at 3,300' AGL
Conditions
  • Light Rain
Temperature Dewpoint
10°C / 50°F 9°C / 48°F
Humidity Altimeter Pressure
94% 30.11" Hg 1019.6 hPa
Current Rain
0.005